Time;durP1;ratioP1;P1;durP2;ratioP2;P2;SDS_P1;SDS_P2;PMS_P1;PMS_P2;Temp;Humidity;BMP_temperature;BMP_pressure;BME280_temperature;BME280_humidity;BME280_pressure;Samples;Min_cycle;Max_cycle;Signal;HPM_P1;HPM_P2
2022/03/27 00:02:19;;;;;;;10.30;2.88;;;20.80;99.90;;;;;;4989420;28;20037;-68
2022/03/27 00:04:47;;;;;;;9.77;2.70;;;20.60;99.90;;;;;;4985492;28;20360;-67
2022/03/27 00:07:15;;;;;;;8.70;2.55;;;20.70;99.90;;;;;;4989169;28;20043;-67
2022/03/27 00:09:43;;;;;;;7.72;1.92;;;20.70;99.90;;;;;;5007274;28;20529;-67
2022/03/27 00:12:10;;;;;;;12.88;2.40;;;20.60;99.90;;;;;;4992500;28;20030;-67
2022/03/27 00:14:38;;;;;;;7.32;2.42;;;20.50;99.90;;;;;;5002382;28;20049;-67
2022/03/27 00:17:06;;;;;;;8.25;2.25;;;20.60;99.90;;;;;;4992260;28;20040;-67
2022/03/27 00:19:33;;;;;;;11.80;2.45;;;20.60;99.90;;;;;;4989241;28;20029;-67
2022/03/27 00:22:01;;;;;;;10.15;2.95;;;20.50;99.90;;;;;;4988707;28;20037;-68
2022/03/27 00:24:28;;;;;;;7.65;1.67;;;20.60;99.90;;;;;;4984257;28;20038;-67
2022/03/27 00:26:56;;;;;;;6.13;2.67;;;20.70;99.90;;;;;;4992030;28;20061;-67
2022/03/27 00:29:23;;;;;;;7.65;3.00;;;20.70;99.90;;;;;;5005925;28;20104;-67
2022/03/27 00:31:52;;;;;;;10.90;2.90;;;20.70;99.90;;;;;;4987781;28;20023;-66
2022/03/27 00:34:21;;;;;;;10.80;2.60;;;20.60;99.90;;;;;;4986831;28;20109;-66
2022/03/27 00:36:49;;;;;;;11.57;2.75;;;20.70;99.90;;;;;;4995047;28;20081;-64
2022/03/27 00:39:17;;;;;;;7.32;2.30;;;20.70;99.90;;;;;;4987328;28;20117;-65
2022/03/27 00:41:45;;;;;;;8.75;2.17;;;20.80;99.90;;;;;;4992888;28;20037;-65
2022/03/27 00:44:12;;;;;;;5.43;2.15;;;20.80;99.90;;;;;;4984362;28;20078;-65
2022/03/27 00:46:41;;;;;;;7.50;2.13;;;20.80;99.90;;;;;;5004660;28;20065;-65
2022/03/27 00:49:08;;;;;;;11.30;2.83;;;20.90;99.90;;;;;;4986884;28;20038;-65
2022/03/27 00:51:36;;;;;;;13.07;2.53;;;20.80;99.90;;;;;;4987853;28;20057;-65
2022/03/27 00:54:04;;;;;;;9.23;1.75;;;20.80;99.90;;;;;;4983154;28;20053;-65
2022/03/27 00:56:32;;;;;;;8.52;2.78;;;20.90;99.90;;;;;;4996408;28;20033;-65
2022/03/27 00:59:00;;;;;;;7.78;2.25;;;21.00;99.90;;;;;;4994938;28;20034;-66
2022/03/27 01:01:36;;;;;;;8.35;2.60;;;21.00;99.90;;;;;;4976087;28;20031;-66
2022/03/27 01:04:06;;;;;;;7.28;2.40;;;21.10;99.90;;;;;;4992099;28;20030;-66
2022/03/27 01:06:39;;;;;;;9.60;2.60;;;21.10;99.90;;;;;;4995375;28;20356;-65
2022/03/27 01:11:50;;;;;;;6.57;0.90;;;21.10;99.90;;;;;;4996998;28;20039;-65
2022/03/27 01:14:48;;;;;;;4.97;0.90;;;20.80;99.90;;;;;;4981308;28;20125;-65
2022/03/27 01:17:18;;;;;;;9.27;1.45;;;20.40;99.90;;;;;;4977117;28;20061;-66
2022/03/27 01:19:49;;;;;;;6.00;1.27;;;20.10;99.90;;;;;;4988074;28;20037;-65
2022/03/27 01:22:17;;;;;;;6.80;1.02;;;20.00;99.90;;;;;;5013026;28;20022;-66
2022/03/27 01:24:47;;;;;;;11.18;1.90;;;19.70;99.90;;;;;;5010548;28;20061;-65
2022/03/27 01:27:14;;;;;;;5.13;0.80;;;19.60;99.90;;;;;;4973030;28;20113;-66
2022/03/27 01:29:42;;;;;;;4.63;0.98;;;19.50;99.90;;;;;;4973697;28;20078;-65
2022/03/27 01:32:14;;;;;;;11.00;1.38;;;19.50;99.90;;;;;;4991036;28;20056;-65
2022/03/27 01:34:44;;;;;;;5.78;1.17;;;19.50;99.90;;;;;;4980585;28;20041;-66
2022/03/27 01:37:14;;;;;;;5.25;0.90;;;19.30;99.90;;;;;;4986920;28;20745;-65
2022/03/27 01:39:42;;;;;;;4.97;0.43;;;19.20;99.90;;;;;;4995997;28;20057;-66
2022/03/27 01:42:10;;;;;;;9.63;0.90;;;19.40;99.90;;;;;;4994056;28;20026;-66
2022/03/27 01:44:38;;;;;;;7.57;0.68;;;19.40;99.90;;;;;;5005301;28;20053;-65
2022/03/27 01:47:06;;;;;;;8.10;0.85;;;19.60;99.90;;;;;;5016444;28;20048;-66
2022/03/27 01:49:34;;;;;;;7.03;1.00;;;19.70;99.90;;;;;;4991830;28;20034;-66
2022/03/27 01:52:06;;;;;;;7.43;1.00;;;19.70;99.90;;;;;;4989811;28;20034;-65
2022/03/27 01:54:34;;;;;;;3.72;0.85;;;19.80;99.90;;;;;;4984711;28;20085;-66
2022/03/27 01:57:07;;;;;;;7.65;0.80;;;19.90;99.90;;;;;;4992865;28;20029;-66
2022/03/27 01:59:35;;;;;;;4.40;0.80;;;20.10;99.90;;;;;;4980018;28;20033;-66
2022/03/27 02:02:03;;;;;;;4.22;0.80;;;20.40;99.90;;;;;;4993308;28;20113;-66
2022/03/27 02:04:30;;;;;;;5.07;0.98;;;20.60;99.90;;;;;;4984859;28;20031;-66
2022/03/27 02:06:57;;;;;;;5.22;0.90;;;20.70;99.90;;;;;;4980215;28;20398;-66
2022/03/27 02:09:25;;;;;;;5.85;1.10;;;20.70;99.90;;;;;;4991469;28;20054;-66
2022/03/27 02:11:52;;;;;;;5.70;0.82;;;20.70;99.90;;;;;;4979375;28;20031;-66
2022/03/27 02:14:20;;;;;;;6.30;1.45;;;20.80;99.90;;;;;;4988403;28;20031;-66
2022/03/27 02:16:47;;;;;;;5.28;2.00;;;20.80;99.90;;;;;;4993598;28;20038;-66
2022/03/27 02:19:15;;;;;;;5.70;1.50;;;20.60;99.90;;;;;;4987731;28;20030;-66
2022/03/27 02:21:44;;;;;;;6.10;1.15;;;20.60;99.90;;;;;;4982789;28;20022;-66
2022/03/27 02:24:11;;;;;;;6.10;1.55;;;20.70;99.90;;;;;;4978516;28;20031;-66
2022/03/27 02:26:45;;;;;;;6.50;1.50;;;20.80;99.90;;;;;;4986544;28;20027;-67
2022/03/27 02:29:17;;;;;;;4.95;1.10;;;20.70;99.90;;;;;;4978465;28;20085;-66
2022/03/27 02:31:45;;;;;;;7.50;1.05;;;20.80;99.90;;;;;;4983237;28;20101;-66
2022/03/27 02:34:14;;;;;;;5.30;0.85;;;20.90;99.90;;;;;;4987368;28;20106;-66
2022/03/27 02:36:42;;;;;;;4.63;0.80;;;20.90;99.90;;;;;;4995649;28;20034;-66
2022/03/27 02:39:10;;;;;;;7.80;0.95;;;20.90;99.90;;;;;;4993187;28;20025;-66
2022/03/27 02:41:38;;;;;;;6.25;1.17;;;21.00;99.90;;;;;;4995427;28;20537;-66
2022/03/27 02:44:06;;;;;;;4.68;0.95;;;21.00;99.90;;;;;;4984932;28;20085;-66
2022/03/27 02:46:34;;;;;;;7.07;1.10;;;20.90;99.90;;;;;;4979530;28;20049;-66
2022/03/27 02:49:01;;;;;;;11.00;1.55;;;20.90;99.90;;;;;;4983632;28;20046;-66
2022/03/27 02:51:29;;;;;;;4.93;0.80;;;20.90;99.90;;;;;;4996192;28;20031;-66
2022/03/27 02:53:56;;;;;;;23.33;2.13;;;20.90;99.90;;;;;;4983880;28;20424;-66
2022/03/27 02:56:24;;;;;;;5.00;0.85;;;21.00;99.90;;;;;;4976558;28;20062;-66
2022/03/27 02:58:51;;;;;;;5.60;0.75;;;21.20;99.90;;;;;;5000523;28;20027;-66
2022/03/27 03:01:18;;;;;;;6.40;0.60;;;21.10;99.90;;;;;;4994511;28;20031;-66
2022/03/27 03:03:45;;;;;;;7.50;0.52;;;21.10;99.90;;;;;;4995322;28;20423;-66
2022/03/27 03:06:13;;;;;;;9.63;0.85;;;21.20;99.90;;;;;;4992957;28;20037;-66
2022/03/27 03:08:41;;;;;;;4.90;1.00;;;21.40;99.90;;;;;;4995773;28;20030;-67
2022/03/27 03:11:08;;;;;;;5.10;1.00;;;21.50;99.90;;;;;;4984043;28;20034;-66
2022/03/27 03:13:35;;;;;;;5.80;0.80;;;21.60;99.90;;;;;;4975911;28;20113;-67
2022/03/27 03:16:05;;;;;;;8.85;1.02;;;21.70;99.90;;;;;;4985642;28;20586;-66
2022/03/27 03:18:35;;;;;;;15.80;1.85;;;21.80;99.90;;;;;;5011287;28;20040;-65
2022/03/27 03:21:03;;;;;;;6.22;1.08;;;21.80;99.90;;;;;;4986766;28;20026;-66
2022/03/27 03:23:31;;;;;;;5.20;1.40;;;21.80;99.90;;;;;;4988477;28;20681;-66
2022/03/27 03:25:58;;;;;;;10.05;1.25;;;21.80;99.90;;;;;;4994523;28;20026;-66
2022/03/27 03:28:26;;;;;;;5.93;0.93;;;21.90;99.90;;;;;;4991741;28;20026;-66
2022/03/27 03:30:54;;;;;;;7.97;1.10;;;22.10;99.90;;;;;;4988739;28;20026;-66
2022/03/27 03:33:21;;;;;;;5.57;0.73;;;22.00;99.90;;;;;;4990155;28;20074;-66
2022/03/27 03:35:49;;;;;;;8.55;0.98;;;22.10;99.90;;;;;;4982338;28;20479;-66
2022/03/27 03:38:16;;;;;;;8.07;1.25;;;22.10;99.90;;;;;;4994011;28;20026;-66
2022/03/27 03:40:43;;;;;;;6.00;0.50;;;22.00;99.90;;;;;;4988078;28;20121;-66
2022/03/27 03:43:11;;;;;;;5.80;0.60;;;22.00;99.90;;;;;;4991442;28;20022;-67
2022/03/27 03:45:38;;;;;;;9.45;1.60;;;22.00;99.90;;;;;;4985243;28;20526;-66
2022/03/27 03:48:06;;;;;;;7.07;0.95;;;22.10;99.90;;;;;;4989879;28;20026;-66
2022/03/27 03:50:35;;;;;;;8.05;1.70;;;22.00;99.90;;;;;;4992140;28;20019;-66
2022/03/27 03:53:03;;;;;;;9.18;1.42;;;22.10;99.90;;;;;;4985539;28;20019;-66
2022/03/27 03:55:31;;;;;;;6.30;0.80;;;22.10;99.90;;;;;;4981835;28;20068;-66
2022/03/27 03:57:58;;;;;;;6.00;1.10;;;21.90;99.90;;;;;;4995542;28;20081;-66
2022/03/27 04:00:26;;;;;;;7.05;1.42;;;21.90;99.90;;;;;;4989331;28;20041;-66
2022/03/27 04:02:53;;;;;;;7.20;0.63;;;21.90;99.90;;;;;;4976921;28;20037;-66
2022/03/27 04:05:21;;;;;;;8.05;1.13;;;21.90;99.90;;;;;;4975867;28;20495;-66
2022/03/27 04:07:48;;;;;;;9.13;1.15;;;21.70;99.90;;;;;;4990862;28;20057;-66
2022/03/27 04:10:15;;;;;;;6.25;1.08;;;21.70;99.90;;;;;;4993277;28;20054;-66
2022/03/27 04:12:43;;;;;;;5.85;0.90;;;21.70;99.90;;;;;;4993747;28;20045;-66
2022/03/27 04:15:11;;;;;;;8.70;1.05;;;21.70;99.90;;;;;;4992306;28;20026;-66
2022/03/27 04:17:45;;;;;;;8.00;0.77;;;21.60;99.90;;;;;;4995480;28;20039;-66
2022/03/27 04:20:13;;;;;;;9.82;0.95;;;21.70;99.90;;;;;;4990788;28;20026;-66
2022/03/27 04:22:45;;;;;;;12.43;1.48;;;21.60;99.90;;;;;;4983466;28;20022;-66
2022/03/27 04:25:15;;;;;;;12.45;1.55;;;21.60;99.90;;;;;;4987437;28;20050;-66
2022/03/27 04:27:42;;;;;;;4.10;0.75;;;21.60;99.90;;;;;;4988716;28;20027;-66
2022/03/27 04:30:11;;;;;;;8.93;1.38;;;21.60;99.90;;;;;;4983811;28;20033;-66
2022/03/27 04:32:39;;;;;;;9.32;1.88;;;21.60;99.90;;;;;;4989024;28;20038;-66
2022/03/27 04:35:08;;;;;;;7.03;1.55;;;21.60;99.90;;;;;;4982699;28;20030;-66
2022/03/27 04:37:42;;;;;;;6.57;1.70;;;21.40;99.90;;;;;;4985470;28;20077;-66
2022/03/27 04:40:10;;;;;;;;;;;20.70;99.90;;;;;;4984944;28;20046;-66
2022/03/27 04:42:37;;;;;;;6.65;1.38;;;20.40;99.90;;;;;;4986973;28;19910;-66
2022/03/27 04:45:05;;;;;;;4.82;1.45;;;20.20;99.90;;;;;;4984255;28;20077;-66
2022/03/27 04:47:33;;;;;;;7.18;1.42;;;20.20;99.90;;;;;;4985430;28;20410;-66
2022/03/27 04:50:00;;;;;;;8.60;1.05;;;20.20;99.90;;;;;;4989341;28;20062;-66
2022/03/27 04:52:28;;;;;;;13.68;2.05;;;20.20;99.90;;;;;;4988471;28;20035;-66
2022/03/27 04:54:55;;;;;;;9.23;1.45;;;20.10;99.90;;;;;;4979546;28;20026;-66
2022/03/27 04:57:23;;;;;;;10.98;1.60;;;20.20;99.90;;;;;;4990913;28;20034;-66
2022/03/27 04:59:50;;;;;;;11.82;1.88;;;20.30;99.90;;;;;;4990401;28;20065;-66
2022/03/27 05:02:17;;;;;;;14.00;1.85;;;20.30;99.90;;;;;;4988548;28;20018;-66
2022/03/27 05:04:45;;;;;;;8.50;1.75;;;20.30;99.90;;;;;;4986681;28;20477;-66
2022/03/27 05:07:12;;;;;;;8.00;1.77;;;20.20;99.90;;;;;;4990571;28;20061;-66
2022/03/27 05:09:39;;;;;;;11.73;1.20;;;20.20;99.90;;;;;;4990638;28;20121;-66
2022/03/27 05:12:07;;;;;;;14.18;2.05;;;20.20;99.90;;;;;;4974192;28;20037;-66
2022/03/27 05:14:35;;;;;;;9.57;1.73;;;20.20;99.90;;;;;;4975318;28;20173;-66
2022/03/27 05:17:04;;;;;;;10.30;1.23;;;20.10;99.90;;;;;;4979389;28;20022;-66
2022/03/27 05:19:32;;;;;;;13.98;1.40;;;20.20;99.90;;;;;;4998690;28;20022;-66
2022/03/27 05:21:59;;;;;;;12.00;2.00;;;20.20;99.90;;;;;;4975978;28;20065;-66
2022/03/27 05:24:28;;;;;;;18.65;2.40;;;20.30;99.90;;;;;;5006021;28;20022;-66
2022/03/27 05:26:56;;;;;;;10.65;2.28;;;20.30;99.90;;;;;;4975873;28;20027;-66
2022/03/27 05:29:23;;;;;;;11.68;1.48;;;20.30;99.90;;;;;;4973687;28;20109;-66
2022/03/27 05:31:51;;;;;;;9.85;1.23;;;20.30;99.90;;;;;;4974243;28;20029;-66
2022/03/27 05:34:19;;;;;;;9.90;1.65;;;20.30;99.90;;;;;;4974188;28;20027;-66
2022/03/27 05:36:46;;;;;;;8.85;1.55;;;20.30;99.90;;;;;;5003414;28;20022;-66
2022/03/27 05:39:14;;;;;;;11.27;2.03;;;20.30;99.90;;;;;;5010387;28;20029;-66
2022/03/27 05:41:41;;;;;;;9.60;1.15;;;20.20;99.90;;;;;;4989936;28;20037;-66
2022/03/27 05:44:09;;;;;;;11.25;1.73;;;20.20;99.90;;;;;;4993442;28;20050;-66
2022/03/27 05:46:37;;;;;;;7.57;1.10;;;20.20;99.90;;;;;;4990955;28;20030;-66
2022/03/27 05:49:07;;;;;;;13.07;1.50;;;20.20;99.90;;;;;;4991038;28;20058;-66
2022/03/27 05:51:34;;;;;;;13.63;1.30;;;20.30;99.90;;;;;;4987539;28;20102;-67
2022/03/27 05:54:02;;;;;;;9.35;1.05;;;20.40;99.90;;;;;;4986788;28;20022;-67
2022/03/27 05:56:29;;;;;;;9.23;1.35;;;20.40;99.90;;;;;;4988045;28;20507;-66
2022/03/27 05:58:57;;;;;;;11.07;1.50;;;20.40;99.90;;;;;;4979772;28;20077;-67
2022/03/27 06:01:24;;;;;;;11.25;1.65;;;20.40;99.90;;;;;;4977583;28;20122;-68
2022/03/27 06:03:51;;;;;;;16.63;2.33;;;20.50;99.90;;;;;;4988465;28;20029;-68
2022/03/27 06:06:18;;;;;;;11.45;1.30;;;20.50;99.90;;;;;;4975225;28;20046;-67
2022/03/27 06:08:46;;;;;;;8.57;1.55;;;20.40;99.90;;;;;;4983835;28;20038;-67
2022/03/27 06:11:13;;;;;;;11.52;1.90;;;20.40;99.90;;;;;;4985405;28;20030;-67
2022/03/27 06:13:41;;;;;;;9.63;1.80;;;20.40;99.90;;;;;;5002771;28;20118;-68
2022/03/27 06:16:08;;;;;;;11.88;1.02;;;20.40;99.90;;;;;;4986920;28;20026;-68
2022/03/27 06:18:36;;;;;;;8.18;1.23;;;20.40;99.90;;;;;;5003480;28;20113;-67
2022/03/27 06:21:04;;;;;;;12.32;1.35;;;20.30;99.90;;;;;;4982100;28;20394;-67
2022/03/27 06:23:31;;;;;;;8.95;1.38;;;20.40;99.90;;;;;;4989459;28;20121;-66
2022/03/27 06:25:58;;;;;;;13.70;1.30;;;20.40;99.90;;;;;;4976619;28;20041;-66
2022/03/27 06:28:25;;;;;;;6.97;1.75;;;20.50;99.90;;;;;;5002508;28;20092;-67
2022/03/27 06:30:53;;;;;;;15.68;8.20;;;20.50;99.90;;;;;;4989950;28;20379;-67
2022/03/27 06:33:20;;;;;;;10.60;3.25;;;20.50;99.90;;;;;;4983887;28;20034;-67
2022/03/27 06:35:48;;;;;;;11.75;1.80;;;20.50;99.90;;;;;;4986816;28;20076;-67
2022/03/27 06:38:15;;;;;;;8.45;1.00;;;20.50;99.90;;;;;;4982703;28;20387;-67
2022/03/27 06:40:42;;;;;;;6.90;1.05;;;20.50;99.90;;;;;;4986251;28;20035;-66
2022/03/27 06:43:10;;;;;;;12.40;1.42;;;20.50;99.90;;;;;;4987431;28;20433;-66
2022/03/27 06:45:38;;;;;;;12.45;1.60;;;20.50;99.90;;;;;;4989774;28;20039;-66
2022/03/27 06:48:06;;;;;;;14.15;1.85;;;20.50;99.90;;;;;;5008960;28;20038;-66
2022/03/27 06:50:33;;;;;;;9.98;1.33;;;20.50;99.90;;;;;;4986535;28;20460;-67
2022/03/27 06:53:01;;;;;;;16.45;1.70;;;20.50;99.90;;;;;;4998568;28;20506;-66
2022/03/27 06:55:29;;;;;;;9.48;1.50;;;20.50;99.90;;;;;;4993489;28;20014;-67
2022/03/27 06:57:56;;;;;;;11.35;1.40;;;20.40;99.90;;;;;;5002299;28;20026;-67
2022/03/27 07:03:11;;;;;;;11.70;2.00;;;20.40;99.90;;;;;;4993240;28;20037;-67
2022/03/27 07:05:43;;;;;;;11.75;1.52;;;20.40;99.90;;;;;;4991257;28;20038;-67
2022/03/27 07:08:15;;;;;;;14.90;1.83;;;20.30;99.90;;;;;;4989778;28;20033;-67
2022/03/27 07:10:44;;;;;;;11.48;1.52;;;20.30;99.90;;;;;;4983099;28;20034;-67
2022/03/27 07:13:14;;;;;;;7.82;1.45;;;20.30;99.90;;;;;;4993831;28;20015;-67
2022/03/27 07:15:42;;;;;;;11.70;1.33;;;20.20;99.90;;;;;;4990584;28;20109;-67
2022/03/27 07:18:11;;;;;;;17.20;1.80;;;20.30;99.90;;;;;;4984505;28;20014;-66
2022/03/27 07:20:44;;;;;;;12.48;1.83;;;20.20;99.90;;;;;;4992788;28;20100;-67
2022/03/27 07:23:14;;;;;;;14.00;2.15;;;20.30;99.90;;;;;;4992743;28;20026;-67
2022/03/27 07:25:44;;;;;;;15.23;1.95;;;20.30;99.90;;;;;;4982292;28;20491;-67
2022/03/27 07:28:12;;;;;;;7.53;1.30;;;20.30;99.90;;;;;;5002438;28;20052;-67
2022/03/27 07:30:42;;;;;;;13.90;2.33;;;20.20;99.90;;;;;;4990097;28;20411;-68
2022/03/27 07:33:09;;;;;;;9.82;1.60;;;20.20;99.90;;;;;;4993367;28;20028;-67
2022/03/27 07:35:37;;;;;;;7.13;1.13;;;20.20;99.90;;;;;;4988094;28;20028;-67
2022/03/27 07:38:05;;;;;;;8.45;1.50;;;20.20;99.90;;;;;;4992016;28;20076;-67
2022/03/27 07:40:33;;;;;;;11.43;1.95;;;20.20;99.90;;;;;;4985358;28;20054;-67
2022/03/27 07:43:01;;;;;;;9.18;1.40;;;20.20;99.90;;;;;;4974674;28;20031;-67
2022/03/27 07:45:31;;;;;;;7.82;1.63;;;20.20;99.90;;;;;;4979904;28;20046;-66
2022/03/27 07:47:59;;;;;;;9.73;1.70;;;20.20;99.90;;;;;;4992812;28;20050;-67
2022/03/27 07:50:28;;;;;;;12.13;2.17;;;20.20;99.90;;;;;;4992372;28;20025;-67
2022/03/27 07:52:55;;;;;;;6.60;0.90;;;20.10;99.90;;;;;;4992222;28;20034;-67
2022/03/27 07:55:24;;;;;;;7.63;2.30;;;20.10;99.90;;;;;;4988159;28;20026;-66
2022/03/27 07:57:51;;;;;;;12.98;1.88;;;20.10;99.90;;;;;;4989523;28;20760;-67
2022/03/27 08:00:19;;;;;;;8.77;0.93;;;20.10;99.90;;;;;;5002406;28;20026;-67
2022/03/27 08:02:46;;;;;;;14.07;1.42;;;20.10;99.90;;;;;;4992122;28;20050;-67
2022/03/27 08:05:14;;;;;;;11.27;1.55;;;20.10;99.90;;;;;;4983982;28;20390;-67
2022/03/27 08:07:42;;;;;;;9.35;1.42;;;20.10;99.90;;;;;;4991127;28;20425;-66
2022/03/27 08:10:11;;;;;;;11.10;1.83;;;20.10;99.90;;;;;;4980340;28;20475;-67
2022/03/27 08:12:38;;;;;;;9.65;2.47;;;20.10;99.90;;;;;;4974586;28;20034;-67
2022/03/27 08:15:06;;;;;;;14.70;2.25;;;20.10;99.90;;;;;;4987286;28;20023;-67
2022/03/27 08:17:34;;;;;;;10.43;1.75;;;20.10;99.90;;;;;;5001790;28;20058;-67
2022/03/27 08:20:02;;;;;;;10.93;2.60;;;20.10;99.90;;;;;;4989148;28;20030;-66
2022/03/27 08:22:30;;;;;;;15.88;2.17;;;20.10;99.90;;;;;;4988173;28;20384;-66
2022/03/27 08:24:57;;;;;;;17.58;3.08;;;20.10;99.90;;;;;;4984181;28;20034;-67
2022/03/27 08:27:25;;;;;;;19.95;2.85;;;20.20;99.90;;;;;;4974842;28;20022;-67
2022/03/27 08:29:52;;;;;;;10.38;1.80;;;20.10;99.90;;;;;;4992429;28;20027;-67
2022/03/27 08:32:20;;;;;;;21.00;2.50;;;20.20;99.90;;;;;;4990187;28;20026;-66
2022/03/27 08:34:48;;;;;;;12.23;2.08;;;20.20;99.90;;;;;;4989452;28;20030;-67
2022/03/27 08:37:17;;;;;;;23.95;2.95;;;20.10;99.90;;;;;;4990858;28;20027;-67
2022/03/27 08:39:45;;;;;;;15.77;2.45;;;20.10;99.90;;;;;;5001916;28;20014;-67
2022/03/27 08:42:16;;;;;;;15.35;2.53;;;20.10;99.90;;;;;;5003239;28;20026;-66
2022/03/27 08:44:43;;;;;;;16.17;2.08;;;20.10;99.90;;;;;;4992126;28;20577;-67
2022/03/27 08:47:31;;;;;;;13.23;2.28;;;20.10;99.90;;;;;;4982696;28;20034;-67
2022/03/27 08:50:11;;;;;;;13.18;2.42;;;20.10;99.90;;;;;;4989208;28;20022;-66
2022/03/27 08:52:53;;;;;;;18.27;3.15;;;20.10;99.90;;;;;;4984706;28;20312;-67
2022/03/27 08:55:34;;;;;;;17.27;3.28;;;20.10;99.90;;;;;;4989908;28;20030;-67
2022/03/27 08:58:02;;;;;;;14.77;2.55;;;20.10;99.90;;;;;;4993426;28;20027;-66
2022/03/27 09:00:31;;;;;;;12.05;2.38;;;20.10;99.90;;;;;;4990149;28;20022;-68
2022/03/27 09:03:01;;;;;;;17.52;3.28;;;20.10;99.90;;;;;;4990594;28;20026;-65
2022/03/27 09:05:29;;;;;;;10.45;1.60;;;20.10;99.90;;;;;;4988268;28;20081;-65
2022/03/27 09:08:02;;;;;;;16.33;3.10;;;20.10;99.90;;;;;;4989275;28;20030;-66
2022/03/27 09:10:29;;;;;;;11.53;2.43;;;20.10;99.90;;;;;;4978872;28;20030;-66
2022/03/27 09:12:57;;;;;;;9.55;1.35;;;19.90;99.90;;;;;;4988682;28;20268;-66
2022/03/27 09:15:25;;;;;;;13.52;1.23;;;19.80;99.90;;;;;;4988526;28;20018;-67
2022/03/27 09:18:09;;;;;;;10.10;2.47;;;19.70;99.90;;;;;;4992452;28;20036;-67
2022/03/27 09:20:44;;;;;;;9.38;1.15;;;19.60;99.90;;;;;;4983624;28;20030;-67
2022/03/27 09:23:28;;;;;;;7.55;1.42;;;19.50;99.90;;;;;;4986672;28;20340;-67
2022/03/27 09:26:01;;;;;;;5.63;0.75;;;19.50;99.90;;;;;;4987884;28;20030;-67
2022/03/27 09:28:48;;;;;;;6.70;0.98;;;19.40;99.90;;;;;;4986698;28;20041;-66
2022/03/27 09:31:18;;;;;;;4.32;0.85;;;19.40;99.90;;;;;;4990031;28;20121;-67
2022/03/27 09:34:02;;;;;;;3.22;0.55;;;19.40;99.90;;;;;;4981395;28;20395;-67
2022/03/27 09:36:42;;;;;;;6.60;0.90;;;19.30;99.90;;;;;;4979871;28;20046;-67
2022/03/27 09:39:17;;;;;;;7.10;0.85;;;19.30;99.90;;;;;;4992785;28;20391;-67
2022/03/27 09:41:50;;;;;;;6.88;1.58;;;19.30;99.90;;;;;;4992147;28;20022;-66
2022/03/27 09:44:23;;;;;;;5.80;0.77;;;19.30;99.90;;;;;;4989683;28;20410;-66
2022/03/27 09:47:06;;;;;;;6.15;0.80;;;19.30;99.90;;;;;;4991398;28;20034;-67
2022/03/27 09:49:39;;;;;;;7.95;1.55;;;19.30;99.90;;;;;;4973457;28;20101;-66
2022/03/27 09:52:12;;;;;;;7.80;2.92;;;19.30;99.90;;;;;;4991683;28;20034;-67
2022/03/27 09:54:47;;;;;;;7.63;2.75;;;19.30;99.90;;;;;;4992144;28;20027;-66
2022/03/27 09:57:57;;;;;;;5.15;1.48;;;19.40;99.90;;;;;;4996091;28;20438;-67
2022/03/27 10:00:25;;;;;;;7.13;1.42;;;19.40;99.90;;;;;;4975956;28;20402;-66
2022/03/27 10:02:52;;;;;;;15.30;1.55;;;19.40;99.90;;;;;;4985760;28;20046;-67
2022/03/27 10:05:22;;;;;;;6.70;0.70;;;19.40;99.90;;;;;;4996199;28;20035;-67
2022/03/27 10:07:56;;;;;;;3.67;0.80;;;19.40;99.90;;;;;;4989801;28;20129;-66
2022/03/27 10:10:26;;;;;;;2.20;0.50;;;19.30;99.90;;;;;;4977443;28;20027;-67
2022/03/27 10:12:58;;;;;;;4.93;0.80;;;19.30;99.90;;;;;;4991114;28;20022;-66
2022/03/27 10:15:30;;;;;;;2.50;0.75;;;19.30;99.90;;;;;;4993774;28;20501;-67
2022/03/27 10:18:20;;;;;;;5.93;1.13;;;19.40;99.90;;;;;;5010893;28;20121;-67
2022/03/27 10:20:55;;;;;;;5.32;1.48;;;19.40;99.90;;;;;;4995426;28;20018;-67
2022/03/27 10:23:24;;;;;;;13.43;8.63;;;19.30;99.90;;;;;;4988068;28;20022;-67
2022/03/27 10:25:55;;;;;;;9.30;5.15;;;19.40;99.90;;;;;;4975387;28;20046;-68
2022/03/27 10:28:23;;;;;;;7.43;1.55;;;19.40;99.90;;;;;;4986310;28;20552;-67
2022/03/27 10:30:51;;;;;;;4.93;1.50;;;19.30;99.90;;;;;;4996144;28;20026;-67
2022/03/27 10:33:26;;;;;;;3.33;0.68;;;19.30;99.90;;;;;;4996218;28;20026;-67
2022/03/27 10:36:08;;;;;;;6.93;1.25;;;19.30;99.90;;;;;;4995088;28;20030;-67
2022/03/27 10:39:00;;;;;;;5.25;0.88;;;19.20;99.90;;;;;;4991220;28;20382;-67
2022/03/27 10:41:53;;;;;;;5.55;0.90;;;19.30;99.90;;;;;;4988524;28;20462;-67
2022/03/27 10:44:24;;;;;;;5.63;0.52;;;19.30;99.90;;;;;;4992040;28;20050;-67
2022/03/27 10:47:13;;;;;;;9.45;1.52;;;19.30;99.90;;;;;;4990804;28;20050;-67
2022/03/27 10:49:42;;;;;;;6.05;0.90;;;19.30;99.90;;;;;;4991482;28;20387;-68
2022/03/27 10:52:10;;;;;;;2.45;0.80;;;19.30;99.90;;;;;;4990347;28;20053;-67
2022/03/27 10:54:59;;;;;;;6.78;1.27;;;19.30;99.90;;;;;;4992009;28;20588;-67
2022/03/27 10:57:36;;;;;;;5.47;0.70;;;19.30;99.90;;;;;;4988192;28;20041;-67
2022/03/27 11:00:09;;;;;;;4.72;0.80;;;19.40;99.90;;;;;;4989085;28;20026;-67
2022/03/27 11:02:49;;;;;;;4.45;1.08;;;19.40;99.90;;;;;;4993924;28;20399;-67
2022/03/27 11:05:32;;;;;;;8.98;1.10;;;19.40;99.90;;;;;;4994345;28;20037;-67
2022/03/27 11:08:17;;;;;;;3.08;0.70;;;19.40;99.90;;;;;;4989702;28;20356;-67
2022/03/27 11:10:54;;;;;;;7.05;1.27;;;19.40;99.90;;;;;;4994134;28;20487;-67
2022/03/27 11:13:28;;;;;;;7.28;1.27;;;19.30;99.90;;;;;;4991682;28;20423;-67
2022/03/27 11:16:10;;;;;;;5.13;0.82;;;19.40;99.90;;;;;;4991371;28;20023;-67
2022/03/27 11:18:44;;;;;;;4.50;0.63;;;19.40;99.90;;;;;;4993824;28;20034;-67
2022/03/27 11:21:33;;;;;;;8.05;1.00;;;19.40;99.90;;;;;;4994181;28;20100;-68
2022/03/27 11:24:03;;;;;;;6.18;0.80;;;19.40;99.90;;;;;;4977788;28;20057;-68
2022/03/27 11:26:30;;;;;;;4.60;0.70;;;19.40;99.90;;;;;;4994018;28;20030;-67
2022/03/27 11:29:23;;;;;;;5.50;0.93;;;19.40;99.90;;;;;;4994152;28;20029;-67
2022/03/27 11:32:10;;;;;;;8.57;1.65;;;19.40;99.90;;;;;;4994474;28;20069;-67
2022/03/27 11:34:38;;;;;;;5.82;1.02;;;19.40;99.90;;;;;;4994445;28;20026;-66
2022/03/27 11:37:17;;;;;;;3.22;0.90;;;19.40;99.90;;;;;;4992402;28;20041;-67
2022/03/27 11:39:44;;;;;;;10.80;1.25;;;19.40;99.90;;;;;;4992547;28;20032;-67
2022/03/27 11:42:33;;;;;;;8.27;1.00;;;19.30;99.90;;;;;;4992059;28;20399;-67
2022/03/27 11:45:09;;;;;;;8.27;1.10;;;19.30;99.90;;;;;;4993616;28;20065;-68
2022/03/27 11:47:58;;;;;;;4.38;0.70;;;19.40;99.90;;;;;;4991380;28;20037;-67
2022/03/27 11:50:32;;;;;;;5.60;1.10;;;19.40;99.90;;;;;;4978338;28;20414;-67
2022/03/27 11:53:00;;;;;;;4.75;0.77;;;19.40;99.90;;;;;;4989553;28;20119;-67
2022/03/27 11:55:32;;;;;;;7.57;1.23;;;19.40;99.90;;;;;;4992912;28;20030;-67
2022/03/27 11:58:03;;;;;;;6.75;1.10;;;19.40;99.90;;;;;;4992953;28;20554;-67
2022/03/27 12:00:36;;;;;;;8.27;1.23;;;19.40;99.90;;;;;;4993709;28;20096;-67
2022/03/27 12:03:22;;;;;;;4.50;1.67;;;19.40;99.90;;;;;;4991171;28;20053;-67
2022/03/27 12:05:50;;;;;;;4.88;1.30;;;19.30;99.90;;;;;;4986525;28;20034;-67
2022/03/27 12:08:18;;;;;;;4.32;1.70;;;19.40;99.90;;;;;;4990082;28;20821;-67
2022/03/27 12:10:47;;;;;;;6.22;1.67;;;19.30;99.90;;;;;;4990705;28;20038;-68
2022/03/27 12:13:18;;;;;;;7.80;2.13;;;19.40;99.90;;;;;;4989512;28;20112;-67
2022/03/27 12:15:57;;;;;;;4.30;1.75;;;19.30;99.90;;;;;;4992461;28;20033;-66
2022/03/27 12:18:43;;;;;;;4.88;1.50;;;19.40;99.90;;;;;;4987863;28;20085;-67
2022/03/27 12:21:14;;;;;;;5.85;1.73;;;19.40;99.90;;;;;;4988496;28;20031;-67
2022/03/27 12:24:02;;;;;;;12.95;2.85;;;19.40;99.90;;;;;;4986639;28;20101;-67
2022/03/27 12:29:48;;;;;;;12.13;3.20;;;19.30;99.90;;;;;;4992309;28;20033;-67
2022/03/27 12:32:25;;;;;;;12.85;2.75;;;19.30;99.90;;;;;;4990389;28;20061;-67
2022/03/27 12:35:01;;;;;;;7.43;1.80;;;19.30;99.90;;;;;;4992333;28;20442;-68
2022/03/27 12:37:32;;;;;;;8.75;1.75;;;19.30;99.90;;;;;;4983418;28;20492;-67
2022/03/27 12:40:03;;;;;;;9.88;2.13;;;19.30;99.90;;;;;;4990067;28;20050;-67
2022/03/27 12:42:36;;;;;;;9.88;2.72;;;19.30;99.90;;;;;;4982073;28;20035;-67
2022/03/27 12:45:18;;;;;;;10.05;2.13;;;19.30;99.90;;;;;;4988714;28;20042;-68
2022/03/27 12:47:50;;;;;;;9.45;1.70;;;19.30;99.90;;;;;;4990177;28;20649;-67
2022/03/27 12:50:38;;;;;;;10.95;2.75;;;19.30;99.90;;;;;;4989051;28;20018;-68
2022/03/27 12:53:14;;;;;;;15.23;3.25;;;19.30;99.90;;;;;;4987965;28;20041;-68
2022/03/27 12:55:59;;;;;;;10.52;2.45;;;19.30;99.90;;;;;;4991782;28;20112;-68
2022/03/27 12:58:38;;;;;;;12.15;3.13;;;19.30;99.90;;;;;;4988430;28;20161;-67
2022/03/27 13:01:16;;;;;;;9.75;2.10;;;19.30;99.90;;;;;;4986028;28;20015;-67
2022/03/27 13:04:07;;;;;;;12.32;2.90;;;19.30;99.90;;;;;;4987264;28;20385;-67
2022/03/27 13:06:43;;;;;;;9.30;2.00;;;19.20;99.90;;;;;;4997920;28;20451;-68
2022/03/27 13:09:20;;;;;;;13.60;2.42;;;19.20;99.90;;;;;;4992229;28;20109;-67
2022/03/27 13:11:48;;;;;;;11.57;2.70;;;19.20;99.90;;;;;;4982353;28;20073;-68